Aeroporto :
LOGIN :

Iscrizione | Disclaimer

   EN    FR    IT 

 










Sommario :    VFR   VFR Marginale   IFR   IFR Intensivo   IFR Molto Intensivo
Visibilità : 
Base nubi : 
>= 8 km
>= 3000ft
5 / 8 km
1000 / 3000 ft
1500m / 5 km
500 / 1000 ft
800 / 1500m
200 / 500 ft
< 800m
< 200 ft
Simboli :   Temporali  Nebbia  Neve Forte  Precipitazioni Forti  Vento > 20 kt
SIGMETs :   Varie  Temporali  Ghiacco  Turbolenza  Onda orograficha  Ceneri Vulcaniche






- Altitudine del aeroporto : 14 ft
- Codice IATA : RVK


ENRM - Rørvik , Ryum

ULTIMO METAR :
  • 210650Z 20021G31KT 9999 -SHRA FEW016 BKN028 04/01 Q0981

METARs OBSOLETI :
  • 210620Z 18014KT 150V210 9999 FEW016 SCT028 BKN037 04/M01 Q0981
  • 210550Z 19014G24KT 9999 VCSH FEW016 SCT028 BKN035 04/M00 Q0982
  • 210520Z 20018KT 9999 VCSH FEW016 SCT028 BKN037 04/01 Q0982

TAF AMD TAF ENRM
Valido dal 21 a 06 ore il 21 a 15 ore UTC


210615Z 2106/2115 19020G30KT 9999 -SHRA FEW015TCU BKN020
TEMPO 2106/2110 4000 SHRAGS BKN014CB
PROB30
TEMPO 2106/2110 TS
BECMG 2111/2113 15018KT
TEMPO 2112/2115 4000 RA BKN012



MetMap, La meteo Aeronautica in un colpo d'occhio ! - Copyright ORBIFLY Dicembre 2007 - Disclaimer

ORBIFLY MET'MAP TEAM :

Programmazione e sviluppo : Alexandra Zaïnal
Concezione : Baudouin d'Aumeries
Aiuto per la programmazione : Marc-Olivier Méhu
Supporto tecnico e logistico : Manuel Goepfert
Aiuto per la traduzione : Arnaldo La Scala

Contatto : metmap@orbifly.com




FONTI E CREDITI :

   NOAA